<?xml version="1.0" encoding="UTF-8" standalone="no" ?>
<gpx xmlns="http://www.topografix.com/GPX/1/1" xmlns:xsi="http://www.w3.org/2001/XMLSchema-instance" xsi:schemaLocation="http://www.topografix.com/GPX/1/1 http://www.topografix.com/GPX/1/1/gpx.xsd" version="1.1" creator="VisuGPX - https://www.visugpx.com">
  <metadata>
    <name>Les quatre Cols à Lus-la-Croix-Haute</name>
  </metadata>
  <wpt lat="44.63715" lon="5.77347">
    <ele>1305</ele>
    <name><![CDATA[Parking des Chabottes]]></name>
  </wpt>
  <wpt lat="44.63259" lon="5.78254">
    <ele>1468.6</ele>
    <name><![CDATA[Intersection sentier et piste forestière]]></name>
  </wpt>
  <wpt lat="44.63286" lon="5.76669">
    <ele>1645</ele>
    <name><![CDATA[Plate Cuche - Vue sur la Chartreuse de Durbon]]></name>
  </wpt>
  <wpt lat="44.62545" lon="5.78356">
    <ele>1692.5</ele>
    <name><![CDATA[Col des Tours]]></name>
  </wpt>
  <wpt lat="44.62438" lon="5.78773">
    <ele>1734.1</ele>
    <name><![CDATA[Vue sur les montagnes du Dévoluy]]></name>
  </wpt>
  <wpt lat="44.62876" lon="5.79109">
    <ele>1705.2</ele>
    <name><![CDATA[Col du Vallon de l'Aup]]></name>
  </wpt>
  <wpt lat="44.63827" lon="5.80676">
    <ele>1753.6</ele>
    <name><![CDATA[Chemin à gauche]]></name>
  </wpt>
  <wpt lat="44.6381" lon="5.78858">
    <ele>1576.6</ele>
    <name><![CDATA[Intersection avec chemin Tour Carrée]]></name>
  </wpt>
  <wpt lat="44.64202" lon="5.78152">
    <ele>1448.7</ele>
    <name><![CDATA[Traversée du torrent de Chabottes]]></name>
  </wpt>
  <wpt lat="44.64134" lon="5.77818">
    <ele>1409.8</ele>
    <name><![CDATA[Intersection, à gauche en descente ]]></name>
  </wpt>
  <wpt lat="44.63909" lon="5.77328">
    <ele>1321.6</ele>
    <name><![CDATA[Intersection piste forestière, à gauche]]></name>
  </wpt>
  <wpt lat="44.63715" lon="5.77347">
    <ele>1305</ele>
    <name><![CDATA[Parking des Chabottes]]></name>
  </wpt>
  <trk>
    <name><![CDATA[Les quatre Cols à Lus-la-Croix-Haute]]></name>
    <extensions>
      <line xmlns="http://www.topografix.com/GPX/gpx_style/0/2">
        <color>0000FF</color>
        <width>4</width>
      </line>
    </extensions>
    <trkseg>
      <trkpt lat="44.63715" lon="5.77347">
        <ele>1305</ele>
        <time>2018-09-29T09:09:12+02:00</time>
      </trkpt>
      <trkpt lat="44.63708" lon="5.77357">
        <ele>1307</ele>
        <time>2018-09-29T09:15:45+02:00</time>
      </trkpt>
      <trkpt lat="44.63693" lon="5.77382">
        <ele>1311</ele>
        <time>2018-09-29T09:17:37+02:00</time>
      </trkpt>
      <trkpt lat="44.63676" lon="5.77403">
        <ele>1316</ele>
        <time>2018-09-29T09:18:12+02:00</time>
      </trkpt>
      <trkpt lat="44.63662" lon="5.7743">
        <ele>1321</ele>
        <time>2018-09-29T09:19:13+02:00</time>
      </trkpt>
      <trkpt lat="44.63631" lon="5.7746">
        <ele>1326</ele>
        <time>2018-09-29T09:19:37+02:00</time>
      </trkpt>
      <trkpt lat="44.63619" lon="5.7748">
        <ele>1330</ele>
      </trkpt>
      <trkpt lat="44.63611" lon="5.77501">
        <ele>1334</ele>
      </trkpt>
      <trkpt lat="44.636" lon="5.77518">
        <ele>1337</ele>
      </trkpt>
      <trkpt lat="44.63585" lon="5.77543">
        <ele>1342</ele>
      </trkpt>
      <trkpt lat="44.63569" lon="5.77557">
        <ele>1345</ele>
      </trkpt>
      <trkpt lat="44.6355" lon="5.77564">
        <ele>1346</ele>
      </trkpt>
      <trkpt lat="44.63528" lon="5.77573">
        <ele>1346</ele>
      </trkpt>
      <trkpt lat="44.63514" lon="5.77584">
        <ele>1347</ele>
      </trkpt>
      <trkpt lat="44.63478" lon="5.77602">
        <ele>1348</ele>
        <time>2018-09-29T09:20:17+02:00</time>
      </trkpt>
      <trkpt lat="44.63465" lon="5.77606">
        <ele>1349</ele>
      </trkpt>
      <trkpt lat="44.63456" lon="5.77629">
        <ele>1351</ele>
      </trkpt>
      <trkpt lat="44.63448" lon="5.77665">
        <ele>1353</ele>
      </trkpt>
      <trkpt lat="44.63454" lon="5.77734">
        <ele>1365</ele>
      </trkpt>
      <trkpt lat="44.63456" lon="5.77766">
        <ele>1368</ele>
      </trkpt>
      <trkpt lat="44.63459" lon="5.77797">
        <ele>1372</ele>
      </trkpt>
      <trkpt lat="44.63456" lon="5.77838">
        <ele>1375</ele>
      </trkpt>
      <trkpt lat="44.6345" lon="5.77857">
        <ele>1376</ele>
      </trkpt>
      <trkpt lat="44.63445" lon="5.77887">
        <ele>1381</ele>
      </trkpt>
      <trkpt lat="44.63433" lon="5.77928">
        <ele>1389</ele>
      </trkpt>
      <trkpt lat="44.63418" lon="5.77953">
        <ele>1392</ele>
      </trkpt>
      <trkpt lat="44.63395" lon="5.77959">
        <ele>1394</ele>
      </trkpt>
      <trkpt lat="44.63382" lon="5.7798">
        <ele>1400</ele>
      </trkpt>
      <trkpt lat="44.6337" lon="5.78004">
        <ele>1408</ele>
      </trkpt>
      <trkpt lat="44.63352" lon="5.78025">
        <ele>1413</ele>
      </trkpt>
      <trkpt lat="44.63336" lon="5.78039">
        <ele>1416</ele>
      </trkpt>
      <trkpt lat="44.6332" lon="5.78054">
        <ele>1419</ele>
        <time>2018-09-29T09:34:56+02:00</time>
      </trkpt>
      <trkpt lat="44.63302" lon="5.78079">
        <ele>1425</ele>
      </trkpt>
      <trkpt lat="44.63292" lon="5.78105">
        <ele>1429</ele>
      </trkpt>
      <trkpt lat="44.63283" lon="5.78141">
        <ele>1436</ele>
        <time>2018-09-29T09:38:04+02:00</time>
      </trkpt>
      <trkpt lat="44.63273" lon="5.78173">
        <ele>1442</ele>
        <time>2018-09-29T09:39:14+02:00</time>
      </trkpt>
      <trkpt lat="44.63263" lon="5.782">
        <ele>1446</ele>
        <time>2018-09-29T09:40:02+02:00</time>
      </trkpt>
      <trkpt lat="44.63259" lon="5.78223">
        <ele>1451</ele>
        <time>2018-09-29T09:40:26+02:00</time>
      </trkpt>
      <trkpt lat="44.63259" lon="5.78254">
        <ele>1459</ele>
        <time>2018-09-29T09:41:28+02:00</time>
      </trkpt>
      <trkpt lat="44.63238" lon="5.78282">
        <ele>1464</ele>
        <time>2018-09-29T09:45:58+02:00</time>
      </trkpt>
      <trkpt lat="44.63206" lon="5.78271">
        <ele>1462</ele>
        <time>2018-09-29T09:46:24+02:00</time>
      </trkpt>
      <trkpt lat="44.63211" lon="5.78244">
        <ele>1457</ele>
        <time>2018-09-29T09:48:21+02:00</time>
      </trkpt>
      <trkpt lat="44.63179" lon="5.78219">
        <ele>1460</ele>
        <time>2018-09-29T09:49:02+02:00</time>
      </trkpt>
      <trkpt lat="44.63146" lon="5.78191">
        <ele>1469</ele>
        <time>2018-09-29T09:49:40+02:00</time>
      </trkpt>
      <trkpt lat="44.6314" lon="5.78164">
        <ele>1472</ele>
        <time>2018-09-29T09:50:01+02:00</time>
      </trkpt>
      <trkpt lat="44.63126" lon="5.78143">
        <ele>1474</ele>
        <time>2018-09-29T09:50:27+02:00</time>
      </trkpt>
      <trkpt lat="44.63102" lon="5.7814">
        <ele>1479</ele>
        <time>2018-09-29T09:50:48+02:00</time>
      </trkpt>
      <trkpt lat="44.63087" lon="5.78108">
        <ele>1485</ele>
        <time>2018-09-29T09:51:46+02:00</time>
      </trkpt>
      <trkpt lat="44.63092" lon="5.78076">
        <ele>1484</ele>
        <time>2018-09-29T09:52:13+02:00</time>
      </trkpt>
      <trkpt lat="44.63084" lon="5.78043">
        <ele>1486</ele>
      </trkpt>
      <trkpt lat="44.63044" lon="5.77978">
        <ele>1502</ele>
        <time>2018-09-29T09:53:32+02:00</time>
      </trkpt>
      <trkpt lat="44.63044" lon="5.77945">
        <ele>1503</ele>
        <time>2018-09-29T09:54:02+02:00</time>
      </trkpt>
      <trkpt lat="44.63035" lon="5.77921">
        <ele>1508</ele>
        <time>2018-09-29T09:54:28+02:00</time>
      </trkpt>
      <trkpt lat="44.6304" lon="5.77889">
        <ele>1507</ele>
        <time>2018-09-29T09:54:46+02:00</time>
      </trkpt>
      <trkpt lat="44.63048" lon="5.77839">
        <ele>1508</ele>
        <time>2018-09-29T09:55:30+02:00</time>
      </trkpt>
      <trkpt lat="44.63035" lon="5.77817">
        <ele>1516</ele>
        <time>2018-09-29T09:55:46+02:00</time>
      </trkpt>
      <trkpt lat="44.63039" lon="5.77796">
        <ele>1519</ele>
        <time>2018-09-29T09:56:10+02:00</time>
      </trkpt>
      <trkpt lat="44.63057" lon="5.77775">
        <ele>1517</ele>
        <time>2018-09-29T09:56:32+02:00</time>
      </trkpt>
      <trkpt lat="44.63071" lon="5.77748">
        <ele>1520</ele>
        <time>2018-09-29T09:57:16+02:00</time>
      </trkpt>
      <trkpt lat="44.63082" lon="5.77721">
        <ele>1524</ele>
        <time>2018-09-29T09:57:38+02:00</time>
      </trkpt>
      <trkpt lat="44.63109" lon="5.77672">
        <ele>1529</ele>
        <time>2018-09-29T09:58:20+02:00</time>
      </trkpt>
      <trkpt lat="44.63116" lon="5.77643">
        <ele>1536</ele>
        <time>2018-09-29T09:58:47+02:00</time>
      </trkpt>
      <trkpt lat="44.6315" lon="5.7756">
        <ele>1541</ele>
        <time>2018-09-29T10:00:06+02:00</time>
      </trkpt>
      <trkpt lat="44.63155" lon="5.77529">
        <ele>1548</ele>
        <time>2018-09-29T10:00:27+02:00</time>
      </trkpt>
      <trkpt lat="44.63173" lon="5.77428">
        <ele>1557</ele>
        <time>2018-09-29T10:02:15+02:00</time>
      </trkpt>
      <trkpt lat="44.63168" lon="5.77376">
        <ele>1566</ele>
        <time>2018-09-29T10:02:40+02:00</time>
      </trkpt>
      <trkpt lat="44.63166" lon="5.77345">
        <ele>1571</ele>
        <time>2018-09-29T10:03:05+02:00</time>
      </trkpt>
      <trkpt lat="44.63166" lon="5.77313">
        <ele>1573</ele>
        <time>2018-09-29T10:03:31+02:00</time>
      </trkpt>
      <trkpt lat="44.63164" lon="5.77283">
        <ele>1578</ele>
        <time>2018-09-29T10:03:51+02:00</time>
      </trkpt>
      <trkpt lat="44.63163" lon="5.77252">
        <ele>1582</ele>
        <time>2018-09-29T10:04:17+02:00</time>
      </trkpt>
      <trkpt lat="44.63163" lon="5.77218">
        <ele>1586</ele>
        <time>2018-09-29T10:05:31+02:00</time>
      </trkpt>
      <trkpt lat="44.63166" lon="5.77187">
        <ele>1589</ele>
        <time>2018-09-29T10:11:30+02:00</time>
      </trkpt>
      <trkpt lat="44.63168" lon="5.77155">
        <ele>1593</ele>
        <time>2018-09-29T10:12:05+02:00</time>
      </trkpt>
      <trkpt lat="44.63176" lon="5.77125">
        <ele>1593</ele>
        <time>2018-09-29T10:12:40+02:00</time>
      </trkpt>
      <trkpt lat="44.63181" lon="5.77095">
        <ele>1596</ele>
        <time>2018-09-29T10:13:10+02:00</time>
      </trkpt>
      <trkpt lat="44.63187" lon="5.77064">
        <ele>1600</ele>
        <time>2018-09-29T10:13:43+02:00</time>
      </trkpt>
      <trkpt lat="44.63199" lon="5.77035">
        <ele>1602</ele>
        <time>2018-09-29T10:14:12+02:00</time>
      </trkpt>
      <trkpt lat="44.63269" lon="5.76838">
        <ele>1621</ele>
        <time>2018-09-29T10:17:38+02:00</time>
      </trkpt>
      <trkpt lat="44.63283" lon="5.76813">
        <ele>1622</ele>
        <time>2018-09-29T10:18:01+02:00</time>
      </trkpt>
      <trkpt lat="44.63304" lon="5.76759">
        <ele>1629</ele>
        <time>2018-09-29T10:19:00+02:00</time>
      </trkpt>
      <trkpt lat="44.63315" lon="5.76731">
        <ele>1631</ele>
        <time>2018-09-29T10:19:33+02:00</time>
      </trkpt>
      <trkpt lat="44.63325" lon="5.76694">
        <ele>1627</ele>
        <time>2018-09-29T10:20:08+02:00</time>
      </trkpt>
      <trkpt lat="44.63315" lon="5.76661">
        <ele>1627</ele>
        <time>2018-09-29T10:20:45+02:00</time>
      </trkpt>
      <trkpt lat="44.63286" lon="5.76669">
        <ele>1631</ele>
        <time>2018-09-29T10:21:37+02:00</time>
      </trkpt>
      <trkpt lat="44.6328" lon="5.767">
        <ele>1641</ele>
        <time>2018-09-29T10:32:17+02:00</time>
      </trkpt>
      <trkpt lat="44.63275" lon="5.76735">
        <ele>1643</ele>
        <time>2018-09-29T10:32:51+02:00</time>
      </trkpt>
      <trkpt lat="44.63264" lon="5.76762">
        <ele>1642</ele>
        <time>2018-09-29T10:33:03+02:00</time>
      </trkpt>
      <trkpt lat="44.63253" lon="5.76794">
        <ele>1639</ele>
        <time>2018-09-29T10:33:22+02:00</time>
      </trkpt>
      <trkpt lat="44.63238" lon="5.76819">
        <ele>1638</ele>
        <time>2018-09-29T10:33:38+02:00</time>
      </trkpt>
      <trkpt lat="44.63226" lon="5.76847">
        <ele>1635</ele>
        <time>2018-09-29T10:34:12+02:00</time>
      </trkpt>
      <trkpt lat="44.63211" lon="5.76871">
        <ele>1633</ele>
        <time>2018-09-29T10:34:41+02:00</time>
      </trkpt>
      <trkpt lat="44.63196" lon="5.76896">
        <ele>1632</ele>
        <time>2018-09-29T10:34:56+02:00</time>
      </trkpt>
      <trkpt lat="44.63182" lon="5.76921">
        <ele>1629</ele>
        <time>2018-09-29T10:35:03+02:00</time>
      </trkpt>
      <trkpt lat="44.63165" lon="5.76942">
        <ele>1629</ele>
        <time>2018-09-29T10:35:17+02:00</time>
      </trkpt>
      <trkpt lat="44.6314" lon="5.76973">
        <ele>1629</ele>
        <time>2018-09-29T10:35:29+02:00</time>
      </trkpt>
      <trkpt lat="44.63116" lon="5.77053">
        <ele>1619</ele>
        <time>2018-09-29T10:36:40+02:00</time>
      </trkpt>
      <trkpt lat="44.6311" lon="5.77085">
        <ele>1620</ele>
        <time>2018-09-29T10:37:03+02:00</time>
      </trkpt>
      <trkpt lat="44.63098" lon="5.77114">
        <ele>1619</ele>
        <time>2018-09-29T10:37:09+02:00</time>
      </trkpt>
      <trkpt lat="44.63079" lon="5.77156">
        <ele>1622</ele>
        <time>2018-09-29T10:37:24+02:00</time>
      </trkpt>
      <trkpt lat="44.63072" lon="5.77226">
        <ele>1627</ele>
        <time>2018-09-29T10:38:29+02:00</time>
      </trkpt>
      <trkpt lat="44.63069" lon="5.77274">
        <ele>1628</ele>
        <time>2018-09-29T10:38:40+02:00</time>
      </trkpt>
      <trkpt lat="44.63063" lon="5.77305">
        <ele>1631</ele>
        <time>2018-09-29T10:39:06+02:00</time>
      </trkpt>
      <trkpt lat="44.6306" lon="5.77337">
        <ele>1633</ele>
        <time>2018-09-29T10:39:56+02:00</time>
      </trkpt>
      <trkpt lat="44.6306" lon="5.77369">
        <ele>1634</ele>
        <time>2018-09-29T10:40:15+02:00</time>
      </trkpt>
      <trkpt lat="44.6305" lon="5.77408">
        <ele>1639</ele>
        <time>2018-09-29T10:40:41+02:00</time>
      </trkpt>
      <trkpt lat="44.63041" lon="5.77439">
        <ele>1639</ele>
        <time>2018-09-29T10:40:54+02:00</time>
      </trkpt>
      <trkpt lat="44.63025" lon="5.77495">
        <ele>1635</ele>
        <time>2018-09-29T10:41:00+02:00</time>
      </trkpt>
      <trkpt lat="44.6296" lon="5.77597">
        <ele>1639</ele>
        <time>2018-09-29T10:42:28+02:00</time>
      </trkpt>
      <trkpt lat="44.62943" lon="5.77619">
        <ele>1641</ele>
        <time>2018-09-29T10:42:50+02:00</time>
      </trkpt>
      <trkpt lat="44.62927" lon="5.77644">
        <ele>1640</ele>
        <time>2018-09-29T10:43:10+02:00</time>
      </trkpt>
      <trkpt lat="44.6291" lon="5.77667">
        <ele>1643</ele>
        <time>2018-09-29T10:43:26+02:00</time>
      </trkpt>
      <trkpt lat="44.62896" lon="5.77691">
        <ele>1642</ele>
        <time>2018-09-29T10:43:44+02:00</time>
      </trkpt>
      <trkpt lat="44.62793" lon="5.77866">
        <ele>1655</ele>
        <time>2018-09-29T10:46:02+02:00</time>
      </trkpt>
      <trkpt lat="44.62766" lon="5.77906">
        <ele>1656</ele>
        <time>2018-09-29T10:46:17+02:00</time>
      </trkpt>
      <trkpt lat="44.62743" lon="5.77931">
        <ele>1659</ele>
        <time>2018-09-29T10:46:55+02:00</time>
      </trkpt>
      <trkpt lat="44.62707" lon="5.77971">
        <ele>1663</ele>
        <time>2018-09-29T10:47:31+02:00</time>
      </trkpt>
      <trkpt lat="44.62654" lon="5.78027">
        <ele>1671</ele>
        <time>2018-09-29T10:48:33+02:00</time>
      </trkpt>
      <trkpt lat="44.62635" lon="5.78076">
        <ele>1671</ele>
        <time>2018-09-29T10:49:22+02:00</time>
      </trkpt>
      <trkpt lat="44.62617" lon="5.78111">
        <ele>1676</ele>
        <time>2018-09-29T10:49:44+02:00</time>
      </trkpt>
      <trkpt lat="44.62611" lon="5.78137">
        <ele>1673</ele>
        <time>2018-09-29T10:50:02+02:00</time>
      </trkpt>
      <trkpt lat="44.62606" lon="5.78163">
        <ele>1672</ele>
        <time>2018-09-29T10:50:30+02:00</time>
      </trkpt>
      <trkpt lat="44.62588" lon="5.78183">
        <ele>1678</ele>
        <time>2018-09-29T10:50:47+02:00</time>
      </trkpt>
      <trkpt lat="44.62579" lon="5.78213">
        <ele>1677</ele>
        <time>2018-09-29T10:51:08+02:00</time>
      </trkpt>
      <trkpt lat="44.62561" lon="5.78235">
        <ele>1682</ele>
        <time>2018-09-29T10:51:32+02:00</time>
      </trkpt>
      <trkpt lat="44.62547" lon="5.78262">
        <ele>1685</ele>
        <time>2018-09-29T10:51:58+02:00</time>
      </trkpt>
      <trkpt lat="44.62551" lon="5.78295">
        <ele>1684</ele>
        <time>2018-09-29T10:52:14+02:00</time>
      </trkpt>
      <trkpt lat="44.6255" lon="5.78334">
        <ele>1687</ele>
        <time>2018-09-29T10:52:49+02:00</time>
      </trkpt>
      <trkpt lat="44.62545" lon="5.78356">
        <ele>1689</ele>
        <time>2018-09-29T11:02:16+02:00</time>
      </trkpt>
      <trkpt lat="44.62536" lon="5.78389">
        <ele>1688</ele>
        <time>2018-09-29T11:04:17+02:00</time>
      </trkpt>
      <trkpt lat="44.62543" lon="5.78429">
        <ele>1695</ele>
        <time>2018-09-29T11:04:47+02:00</time>
      </trkpt>
      <trkpt lat="44.62532" lon="5.78463">
        <ele>1695</ele>
        <time>2018-09-29T11:05:20+02:00</time>
      </trkpt>
      <trkpt lat="44.62523" lon="5.78497">
        <ele>1697</ele>
        <time>2018-09-29T11:05:42+02:00</time>
      </trkpt>
      <trkpt lat="44.625" lon="5.78575">
        <ele>1704</ele>
        <time>2018-09-29T11:11:09+02:00</time>
      </trkpt>
      <trkpt lat="44.62495" lon="5.78615">
        <ele>1715</ele>
        <time>2018-09-29T11:11:41+02:00</time>
      </trkpt>
      <trkpt lat="44.62477" lon="5.78671">
        <ele>1715</ele>
        <time>2018-09-29T11:12:54+02:00</time>
      </trkpt>
      <trkpt lat="44.62476" lon="5.7874">
        <ele>1725</ele>
        <time>2018-09-29T11:14:05+02:00</time>
      </trkpt>
      <trkpt lat="44.62455" lon="5.78752">
        <ele>1716</ele>
        <time>2018-09-29T11:14:34+02:00</time>
      </trkpt>
      <trkpt lat="44.62438" lon="5.78773">
        <ele>1723</ele>
        <time>2018-09-29T11:15:07+02:00</time>
      </trkpt>
      <trkpt lat="44.62424" lon="5.78799">
        <ele>1729</ele>
      </trkpt>
      <trkpt lat="44.62433" lon="5.78809">
        <ele>1734</ele>
        <time>2018-09-29T11:21:29+02:00</time>
      </trkpt>
      <trkpt lat="44.62456" lon="5.78807">
        <ele>1739</ele>
        <time>2018-09-29T11:22:40+02:00</time>
      </trkpt>
      <trkpt lat="44.62479" lon="5.78807">
        <ele>1741</ele>
        <time>2018-09-29T11:23:14+02:00</time>
      </trkpt>
      <trkpt lat="44.62503" lon="5.78815">
        <ele>1742</ele>
        <time>2018-09-29T11:23:41+02:00</time>
      </trkpt>
      <trkpt lat="44.62521" lon="5.78834">
        <ele>1735</ele>
        <time>2018-09-29T11:24:03+02:00</time>
      </trkpt>
      <trkpt lat="44.62542" lon="5.78846">
        <ele>1734</ele>
        <time>2018-09-29T11:24:24+02:00</time>
      </trkpt>
      <trkpt lat="44.62563" lon="5.78859">
        <ele>1732</ele>
        <time>2018-09-29T11:24:55+02:00</time>
      </trkpt>
      <trkpt lat="44.62585" lon="5.78874">
        <ele>1728</ele>
        <time>2018-09-29T11:25:11+02:00</time>
      </trkpt>
      <trkpt lat="44.62606" lon="5.78888">
        <ele>1728</ele>
        <time>2018-09-29T11:25:32+02:00</time>
      </trkpt>
      <trkpt lat="44.62626" lon="5.789">
        <ele>1730</ele>
        <time>2018-09-29T11:25:53+02:00</time>
      </trkpt>
      <trkpt lat="44.62644" lon="5.7892">
        <ele>1727</ele>
        <time>2018-09-29T11:26:32+02:00</time>
      </trkpt>
      <trkpt lat="44.62665" lon="5.78935">
        <ele>1729</ele>
        <time>2018-09-29T11:26:46+02:00</time>
      </trkpt>
      <trkpt lat="44.62686" lon="5.78947">
        <ele>1729</ele>
        <time>2018-09-29T11:27:00+02:00</time>
      </trkpt>
      <trkpt lat="44.62705" lon="5.78964">
        <ele>1727</ele>
        <time>2018-09-29T11:27:23+02:00</time>
      </trkpt>
      <trkpt lat="44.62727" lon="5.78976">
        <ele>1727</ele>
        <time>2018-09-29T11:27:43+02:00</time>
      </trkpt>
      <trkpt lat="44.62749" lon="5.78985">
        <ele>1728</ele>
        <time>2018-09-29T11:28:04+02:00</time>
      </trkpt>
      <trkpt lat="44.6277" lon="5.78997">
        <ele>1728</ele>
        <time>2018-09-29T11:28:22+02:00</time>
      </trkpt>
      <trkpt lat="44.62789" lon="5.79015">
        <ele>1725</ele>
        <time>2018-09-29T11:28:43+02:00</time>
      </trkpt>
      <trkpt lat="44.62811" lon="5.79026">
        <ele>1723</ele>
        <time>2018-09-29T11:29:04+02:00</time>
      </trkpt>
      <trkpt lat="44.62831" lon="5.7904">
        <ele>1719</ele>
        <time>2018-09-29T11:29:25+02:00</time>
      </trkpt>
      <trkpt lat="44.62849" lon="5.7906">
        <ele>1715</ele>
        <time>2018-09-29T11:29:58+02:00</time>
      </trkpt>
      <trkpt lat="44.62867" lon="5.7908">
        <ele>1712</ele>
        <time>2018-09-29T11:30:25+02:00</time>
      </trkpt>
      <trkpt lat="44.62876" lon="5.79109">
        <ele>1706</ele>
        <time>2018-09-29T11:30:45+02:00</time>
      </trkpt>
      <trkpt lat="44.62877" lon="5.79141">
        <ele>1705</ele>
        <time>2018-09-29T11:31:22+02:00</time>
      </trkpt>
      <trkpt lat="44.62879" lon="5.79172">
        <ele>1708</ele>
        <time>2018-09-29T11:33:30+02:00</time>
      </trkpt>
      <trkpt lat="44.62873" lon="5.79246">
        <ele>1724</ele>
        <time>2018-09-29T11:35:17+02:00</time>
      </trkpt>
      <trkpt lat="44.62899" lon="5.7929">
        <ele>1739</ele>
        <time>2018-09-29T11:36:30+02:00</time>
      </trkpt>
      <trkpt lat="44.62868" lon="5.79333">
        <ele>1754</ele>
        <time>2018-09-29T11:38:34+02:00</time>
      </trkpt>
      <trkpt lat="44.6288" lon="5.79347">
        <ele>1759</ele>
        <time>2018-09-29T11:39:27+02:00</time>
      </trkpt>
      <trkpt lat="44.62899" lon="5.79371">
        <ele>1766</ele>
        <time>2018-09-29T11:40:16+02:00</time>
      </trkpt>
      <trkpt lat="44.62872" lon="5.79398">
        <ele>1772</ele>
        <time>2018-09-29T11:41:03+02:00</time>
      </trkpt>
      <trkpt lat="44.62858" lon="5.79407">
        <ele>1773</ele>
      </trkpt>
      <trkpt lat="44.6285" lon="5.79428">
        <ele>1778</ele>
        <time>2018-09-29T11:41:31+02:00</time>
      </trkpt>
      <trkpt lat="44.62876" lon="5.79437">
        <ele>1783</ele>
        <time>2018-09-29T11:42:38+02:00</time>
      </trkpt>
      <trkpt lat="44.62887" lon="5.79464">
        <ele>1794</ele>
        <time>2018-09-29T11:43:25+02:00</time>
      </trkpt>
      <trkpt lat="44.62897" lon="5.79493">
        <ele>1801</ele>
        <time>2018-09-29T11:44:10+02:00</time>
      </trkpt>
      <trkpt lat="44.62893" lon="5.79524">
        <ele>1807</ele>
        <time>2018-09-29T11:44:42+02:00</time>
      </trkpt>
      <trkpt lat="44.62886" lon="5.79554">
        <ele>1811</ele>
        <time>2018-09-29T11:45:13+02:00</time>
      </trkpt>
      <trkpt lat="44.62881" lon="5.79585">
        <ele>1813</ele>
        <time>2018-09-29T11:45:45+02:00</time>
      </trkpt>
      <trkpt lat="44.62878" lon="5.79635">
        <ele>1811</ele>
        <time>2018-09-29T11:46:07+02:00</time>
      </trkpt>
      <trkpt lat="44.62907" lon="5.79668">
        <ele>1810</ele>
        <time>2018-09-29T11:49:38+02:00</time>
      </trkpt>
      <trkpt lat="44.62922" lon="5.79693">
        <ele>1809</ele>
        <time>2018-09-29T11:50:06+02:00</time>
      </trkpt>
      <trkpt lat="44.62934" lon="5.79721">
        <ele>1806</ele>
        <time>2018-09-29T11:50:26+02:00</time>
      </trkpt>
      <trkpt lat="44.62945" lon="5.7975">
        <ele>1803</ele>
        <time>2018-09-29T11:50:47+02:00</time>
      </trkpt>
      <trkpt lat="44.62956" lon="5.79778">
        <ele>1798</ele>
        <time>2018-09-29T11:51:09+02:00</time>
      </trkpt>
      <trkpt lat="44.62964" lon="5.79808">
        <ele>1793</ele>
        <time>2018-09-29T11:51:33+02:00</time>
      </trkpt>
      <trkpt lat="44.62974" lon="5.79838">
        <ele>1788</ele>
        <time>2018-09-29T11:51:58+02:00</time>
      </trkpt>
      <trkpt lat="44.62987" lon="5.79866">
        <ele>1786</ele>
        <time>2018-09-29T11:52:20+02:00</time>
      </trkpt>
      <trkpt lat="44.62996" lon="5.79896">
        <ele>1782</ele>
        <time>2018-09-29T11:52:38+02:00</time>
      </trkpt>
      <trkpt lat="44.63008" lon="5.79923">
        <ele>1781</ele>
        <time>2018-09-29T11:52:58+02:00</time>
      </trkpt>
      <trkpt lat="44.63021" lon="5.79951">
        <ele>1778</ele>
        <time>2018-09-29T11:53:26+02:00</time>
      </trkpt>
      <trkpt lat="44.63035" lon="5.79977">
        <ele>1777</ele>
        <time>2018-09-29T11:53:44+02:00</time>
      </trkpt>
      <trkpt lat="44.63049" lon="5.80004">
        <ele>1775</ele>
        <time>2018-09-29T11:54:04+02:00</time>
      </trkpt>
      <trkpt lat="44.6306" lon="5.80033">
        <ele>1772</ele>
        <time>2018-09-29T11:54:23+02:00</time>
      </trkpt>
      <trkpt lat="44.63075" lon="5.80057">
        <ele>1773</ele>
        <time>2018-09-29T11:54:43+02:00</time>
      </trkpt>
      <trkpt lat="44.63086" lon="5.80085">
        <ele>1770</ele>
        <time>2018-09-29T11:55:04+02:00</time>
      </trkpt>
      <trkpt lat="44.63089" lon="5.80117">
        <ele>1765</ele>
        <time>2018-09-29T11:55:20+02:00</time>
      </trkpt>
      <trkpt lat="44.63096" lon="5.80148">
        <ele>1762</ele>
        <time>2018-09-29T11:55:40+02:00</time>
      </trkpt>
      <trkpt lat="44.63104" lon="5.80179">
        <ele>1759</ele>
        <time>2018-09-29T11:56:04+02:00</time>
      </trkpt>
      <trkpt lat="44.63113" lon="5.80208">
        <ele>1756</ele>
        <time>2018-09-29T11:56:27+02:00</time>
      </trkpt>
      <trkpt lat="44.63121" lon="5.80238">
        <ele>1751</ele>
        <time>2018-09-29T11:57:01+02:00</time>
      </trkpt>
      <trkpt lat="44.63133" lon="5.80265">
        <ele>1751</ele>
        <time>2018-09-29T11:57:29+02:00</time>
      </trkpt>
      <trkpt lat="44.63145" lon="5.80292">
        <ele>1748</ele>
        <time>2018-09-29T11:57:56+02:00</time>
      </trkpt>
      <trkpt lat="44.63151" lon="5.80324">
        <ele>1742</ele>
        <time>2018-09-29T11:58:26+02:00</time>
      </trkpt>
      <trkpt lat="44.63155" lon="5.80356">
        <ele>1741</ele>
        <time>2018-09-29T11:59:58+02:00</time>
      </trkpt>
      <trkpt lat="44.63165" lon="5.80385">
        <ele>1746</ele>
        <time>2018-09-29T12:00:27+02:00</time>
      </trkpt>
      <trkpt lat="44.63171" lon="5.80415">
        <ele>1750</ele>
        <time>2018-09-29T12:02:28+02:00</time>
      </trkpt>
      <trkpt lat="44.63195" lon="5.80421">
        <ele>1754</ele>
        <time>2018-09-29T12:05:11+02:00</time>
      </trkpt>
      <trkpt lat="44.63219" lon="5.80422">
        <ele>1753</ele>
        <time>2018-09-29T12:05:45+02:00</time>
      </trkpt>
      <trkpt lat="44.6324" lon="5.80416">
        <ele>1752</ele>
        <time>2018-09-29T12:06:20+02:00</time>
      </trkpt>
      <trkpt lat="44.63265" lon="5.80417">
        <ele>1749</ele>
        <time>2018-09-29T12:06:56+02:00</time>
      </trkpt>
      <trkpt lat="44.63292" lon="5.80416">
        <ele>1745</ele>
        <time>2018-09-29T12:07:27+02:00</time>
      </trkpt>
      <trkpt lat="44.63307" lon="5.80403">
        <ele>1747</ele>
        <time>2018-09-29T12:07:57+02:00</time>
      </trkpt>
      <trkpt lat="44.63328" lon="5.8039">
        <ele>1746</ele>
        <time>2018-09-29T12:08:27+02:00</time>
      </trkpt>
      <trkpt lat="44.63349" lon="5.80402">
        <ele>1741</ele>
        <time>2018-09-29T12:09:20+02:00</time>
      </trkpt>
      <trkpt lat="44.63369" lon="5.80413">
        <ele>1738</ele>
        <time>2018-09-29T12:10:38+02:00</time>
      </trkpt>
      <trkpt lat="44.63399" lon="5.80418">
        <ele>1739</ele>
        <time>2018-09-29T12:41:30+02:00</time>
      </trkpt>
      <trkpt lat="44.63424" lon="5.80424">
        <ele>1739</ele>
      </trkpt>
      <trkpt lat="44.63448" lon="5.80426">
        <ele>1742</ele>
      </trkpt>
      <trkpt lat="44.63455" lon="5.80449">
        <ele>1738</ele>
      </trkpt>
      <trkpt lat="44.63474" lon="5.80466">
        <ele>1737</ele>
      </trkpt>
      <trkpt lat="44.63496" lon="5.80463">
        <ele>1740</ele>
      </trkpt>
      <trkpt lat="44.63516" lon="5.80471">
        <ele>1739</ele>
      </trkpt>
      <trkpt lat="44.63532" lon="5.80479">
        <ele>1738</ele>
      </trkpt>
      <trkpt lat="44.63552" lon="5.80494">
        <ele>1736</ele>
      </trkpt>
      <trkpt lat="44.6357" lon="5.80507">
        <ele>1737</ele>
      </trkpt>
      <trkpt lat="44.63591" lon="5.80521">
        <ele>1735</ele>
      </trkpt>
      <trkpt lat="44.63613" lon="5.80532">
        <ele>1733</ele>
      </trkpt>
      <trkpt lat="44.63632" lon="5.80537">
        <ele>1733</ele>
      </trkpt>
      <trkpt lat="44.63658" lon="5.8055">
        <ele>1733</ele>
      </trkpt>
      <trkpt lat="44.63678" lon="5.80553">
        <ele>1734</ele>
      </trkpt>
      <trkpt lat="44.63708" lon="5.80564">
        <ele>1733</ele>
      </trkpt>
      <trkpt lat="44.63728" lon="5.80567">
        <ele>1733</ele>
      </trkpt>
      <trkpt lat="44.63746" lon="5.80568">
        <ele>1734</ele>
      </trkpt>
      <trkpt lat="44.63768" lon="5.80572">
        <ele>1734</ele>
        <time>2018-09-29T13:37:38+02:00</time>
      </trkpt>
      <trkpt lat="44.63782" lon="5.80565">
        <ele>1738</ele>
        <time>2018-09-29T13:40:25+02:00</time>
      </trkpt>
      <trkpt lat="44.63797" lon="5.80557">
        <ele>1741</ele>
        <time>2018-09-29T13:41:01+02:00</time>
      </trkpt>
      <trkpt lat="44.63806" lon="5.80571">
        <ele>1739</ele>
      </trkpt>
      <trkpt lat="44.63838" lon="5.80597">
        <ele>1745</ele>
        <time>2018-09-29T13:41:36+02:00</time>
      </trkpt>
      <trkpt lat="44.63832" lon="5.80621">
        <ele>1745</ele>
        <time>2018-09-29T13:42:14+02:00</time>
      </trkpt>
      <trkpt lat="44.63818" lon="5.80641">
        <ele>1744</ele>
      </trkpt>
      <trkpt lat="44.63827" lon="5.80676">
        <ele>1749</ele>
        <time>2018-09-29T13:42:53+02:00</time>
      </trkpt>
      <trkpt lat="44.63837" lon="5.80644">
        <ele>1753</ele>
        <time>2018-09-29T13:44:31+02:00</time>
      </trkpt>
      <trkpt lat="44.63868" lon="5.80628">
        <ele>1762</ele>
        <time>2018-09-29T13:45:20+02:00</time>
      </trkpt>
      <trkpt lat="44.63886" lon="5.80604">
        <ele>1766</ele>
        <time>2018-09-29T13:45:52+02:00</time>
      </trkpt>
      <trkpt lat="44.63907" lon="5.80603">
        <ele>1774</ele>
        <time>2018-09-29T13:46:45+02:00</time>
      </trkpt>
      <trkpt lat="44.63909" lon="5.80544">
        <ele>1782</ele>
        <time>2018-09-29T13:47:32+02:00</time>
      </trkpt>
      <trkpt lat="44.63929" lon="5.8058">
        <ele>1785</ele>
        <time>2018-09-29T13:48:08+02:00</time>
      </trkpt>
      <trkpt lat="44.63937" lon="5.8061">
        <ele>1784</ele>
        <time>2018-09-29T13:48:42+02:00</time>
      </trkpt>
      <trkpt lat="44.63951" lon="5.80636">
        <ele>1789</ele>
        <time>2018-09-29T13:49:15+02:00</time>
      </trkpt>
      <trkpt lat="44.63973" lon="5.80647">
        <ele>1792</ele>
        <time>2018-09-29T13:49:55+02:00</time>
      </trkpt>
      <trkpt lat="44.63992" lon="5.80638">
        <ele>1796</ele>
        <time>2018-09-29T13:50:30+02:00</time>
      </trkpt>
      <trkpt lat="44.64036" lon="5.80618">
        <ele>1815</ele>
        <time>2018-09-29T13:51:56+02:00</time>
      </trkpt>
      <trkpt lat="44.64079" lon="5.80582">
        <ele>1830</ele>
        <time>2018-09-29T13:53:48+02:00</time>
      </trkpt>
      <trkpt lat="44.64078" lon="5.80598">
        <ele>1828</ele>
        <time>2018-09-29T13:54:27+02:00</time>
      </trkpt>
      <trkpt lat="44.64082" lon="5.80625">
        <ele>1830</ele>
      </trkpt>
      <trkpt lat="44.64073" lon="5.80661">
        <ele>1833</ele>
        <time>2018-09-29T13:54:51+02:00</time>
      </trkpt>
      <trkpt lat="44.64089" lon="5.80643">
        <ele>1836</ele>
      </trkpt>
      <trkpt lat="44.64107" lon="5.8063">
        <ele>1843</ele>
        <time>2018-09-29T13:56:51+02:00</time>
      </trkpt>
      <trkpt lat="44.64126" lon="5.80605">
        <ele>1849</ele>
        <time>2018-09-29T13:57:29+02:00</time>
      </trkpt>
      <trkpt lat="44.64134" lon="5.80567">
        <ele>1852</ele>
        <time>2018-09-29T13:57:58+02:00</time>
      </trkpt>
      <trkpt lat="44.6414" lon="5.80541">
        <ele>1857</ele>
        <time>2018-09-29T13:58:27+02:00</time>
      </trkpt>
      <trkpt lat="44.64141" lon="5.80506">
        <ele>1863</ele>
        <time>2018-09-29T13:58:56+02:00</time>
      </trkpt>
      <trkpt lat="44.6416" lon="5.80536">
        <ele>1867</ele>
        <time>2018-09-29T13:59:28+02:00</time>
      </trkpt>
      <trkpt lat="44.64168" lon="5.80567">
        <ele>1868</ele>
        <time>2018-09-29T14:00:17+02:00</time>
      </trkpt>
      <trkpt lat="44.64179" lon="5.80599">
        <ele>1873</ele>
        <time>2018-09-29T14:00:51+02:00</time>
      </trkpt>
      <trkpt lat="44.64184" lon="5.8056">
        <ele>1876</ele>
        <time>2018-09-29T14:01:52+02:00</time>
      </trkpt>
      <trkpt lat="44.6419" lon="5.80529">
        <ele>1880</ele>
        <time>2018-09-29T14:02:19+02:00</time>
      </trkpt>
      <trkpt lat="44.64195" lon="5.80498">
        <ele>1885</ele>
        <time>2018-09-29T14:02:47+02:00</time>
      </trkpt>
      <trkpt lat="44.64192" lon="5.80466">
        <ele>1887</ele>
        <time>2018-09-29T14:03:18+02:00</time>
      </trkpt>
      <trkpt lat="44.64196" lon="5.80437">
        <ele>1893</ele>
        <time>2018-09-29T14:03:53+02:00</time>
      </trkpt>
      <trkpt lat="44.64185" lon="5.80401">
        <ele>1900</ele>
        <time>2018-09-29T14:04:30+02:00</time>
      </trkpt>
      <trkpt lat="44.64165" lon="5.80379">
        <ele>1900</ele>
        <time>2018-09-29T14:04:56+02:00</time>
      </trkpt>
      <trkpt lat="44.64155" lon="5.80374">
        <ele>1900</ele>
      </trkpt>
      <trkpt lat="44.64152" lon="5.80366">
        <ele>1901</ele>
        <time>2018-09-29T14:05:32+02:00</time>
      </trkpt>
      <trkpt lat="44.64167" lon="5.80344">
        <ele>1904</ele>
        <time>2018-09-29T14:08:06+02:00</time>
      </trkpt>
      <trkpt lat="44.64175" lon="5.80319">
        <ele>1900</ele>
        <time>2018-09-29T14:51:39+02:00</time>
      </trkpt>
      <trkpt lat="44.64187" lon="5.80284">
        <ele>1890</ele>
        <time>2018-09-29T14:52:16+02:00</time>
      </trkpt>
      <trkpt lat="44.6417" lon="5.80301">
        <ele>1892</ele>
      </trkpt>
      <trkpt lat="44.64162" lon="5.803">
        <ele>1893</ele>
        <time>2018-09-29T14:52:47+02:00</time>
      </trkpt>
      <trkpt lat="44.64168" lon="5.8027">
        <ele>1882</ele>
        <time>2018-09-29T14:53:24+02:00</time>
      </trkpt>
      <trkpt lat="44.64199" lon="5.8024">
        <ele>1872</ele>
        <time>2018-09-29T14:53:56+02:00</time>
      </trkpt>
      <trkpt lat="44.64191" lon="5.80236">
        <ele>1871</ele>
        <time>2018-09-29T14:55:00+02:00</time>
      </trkpt>
      <trkpt lat="44.6423" lon="5.80199">
        <ele>1860</ele>
        <time>2018-09-29T14:56:01+02:00</time>
      </trkpt>
      <trkpt lat="44.64213" lon="5.80193">
        <ele>1856</ele>
      </trkpt>
      <trkpt lat="44.64196" lon="5.80194">
        <ele>1855</ele>
        <time>2018-09-29T14:56:51+02:00</time>
      </trkpt>
      <trkpt lat="44.64197" lon="5.80169">
        <ele>1848</ele>
        <time>2018-09-29T14:57:23+02:00</time>
      </trkpt>
      <trkpt lat="44.642" lon="5.80137">
        <ele>1840</ele>
        <time>2018-09-29T14:57:54+02:00</time>
      </trkpt>
      <trkpt lat="44.64225" lon="5.80117">
        <ele>1834</ele>
        <time>2018-09-29T14:59:33+02:00</time>
      </trkpt>
      <trkpt lat="44.64223" lon="5.80095">
        <ele>1829</ele>
      </trkpt>
      <trkpt lat="44.64228" lon="5.80087">
        <ele>1828</ele>
        <time>2018-09-29T15:00:40+02:00</time>
      </trkpt>
      <trkpt lat="44.64212" lon="5.80069">
        <ele>1824</ele>
      </trkpt>
      <trkpt lat="44.64197" lon="5.80059">
        <ele>1824</ele>
        <time>2018-09-29T15:01:11+02:00</time>
      </trkpt>
      <trkpt lat="44.64185" lon="5.80035">
        <ele>1818</ele>
        <time>2018-09-29T15:01:31+02:00</time>
      </trkpt>
      <trkpt lat="44.64166" lon="5.79994">
        <ele>1809</ele>
        <time>2018-09-29T15:01:50+02:00</time>
      </trkpt>
      <trkpt lat="44.64184" lon="5.79991">
        <ele>1807</ele>
        <time>2018-09-29T15:02:25+02:00</time>
      </trkpt>
      <trkpt lat="44.64207" lon="5.79995">
        <ele>1807</ele>
        <time>2018-09-29T15:02:47+02:00</time>
      </trkpt>
      <trkpt lat="44.64218" lon="5.79972">
        <ele>1804</ele>
        <time>2018-09-29T15:03:48+02:00</time>
      </trkpt>
      <trkpt lat="44.64159" lon="5.79887">
        <ele>1785</ele>
        <time>2018-09-29T15:05:58+02:00</time>
      </trkpt>
      <trkpt lat="44.64136" lon="5.79886">
        <ele>1778</ele>
        <time>2018-09-29T15:06:23+02:00</time>
      </trkpt>
      <trkpt lat="44.64113" lon="5.79891">
        <ele>1774</ele>
        <time>2018-09-29T15:06:50+02:00</time>
      </trkpt>
      <trkpt lat="44.6409" lon="5.7989">
        <ele>1771</ele>
        <time>2018-09-29T15:07:11+02:00</time>
      </trkpt>
      <trkpt lat="44.64067" lon="5.79883">
        <ele>1769</ele>
        <time>2018-09-29T15:07:34+02:00</time>
      </trkpt>
      <trkpt lat="44.64056" lon="5.79855">
        <ele>1763</ele>
        <time>2018-09-29T15:07:56+02:00</time>
      </trkpt>
      <trkpt lat="44.64046" lon="5.79821">
        <ele>1761</ele>
        <time>2018-09-29T15:08:59+02:00</time>
      </trkpt>
      <trkpt lat="44.64025" lon="5.79798">
        <ele>1757</ele>
        <time>2018-09-29T15:09:22+02:00</time>
      </trkpt>
      <trkpt lat="44.64013" lon="5.7978">
        <ele>1753</ele>
        <time>2018-09-29T15:09:44+02:00</time>
      </trkpt>
      <trkpt lat="44.63994" lon="5.79761">
        <ele>1748</ele>
        <time>2018-09-29T15:10:10+02:00</time>
      </trkpt>
      <trkpt lat="44.63976" lon="5.7974">
        <ele>1742</ele>
        <time>2018-09-29T15:10:35+02:00</time>
      </trkpt>
      <trkpt lat="44.63956" lon="5.79723">
        <ele>1737</ele>
        <time>2018-09-29T15:11:00+02:00</time>
      </trkpt>
      <trkpt lat="44.63944" lon="5.79696">
        <ele>1729</ele>
        <time>2018-09-29T15:11:32+02:00</time>
      </trkpt>
      <trkpt lat="44.6396" lon="5.79674">
        <ele>1726</ele>
        <time>2018-09-29T15:13:15+02:00</time>
      </trkpt>
      <trkpt lat="44.63982" lon="5.79661">
        <ele>1724</ele>
        <time>2018-09-29T15:13:38+02:00</time>
      </trkpt>
      <trkpt lat="44.63972" lon="5.79632">
        <ele>1719</ele>
        <time>2018-09-29T15:14:28+02:00</time>
      </trkpt>
      <trkpt lat="44.63957" lon="5.79608">
        <ele>1715</ele>
        <time>2018-09-29T15:14:47+02:00</time>
      </trkpt>
      <trkpt lat="44.63945" lon="5.7958">
        <ele>1710</ele>
        <time>2018-09-29T15:15:15+02:00</time>
      </trkpt>
      <trkpt lat="44.63966" lon="5.79563">
        <ele>1708</ele>
        <time>2018-09-29T15:15:54+02:00</time>
      </trkpt>
      <trkpt lat="44.63988" lon="5.79553">
        <ele>1708</ele>
        <time>2018-09-29T15:16:08+02:00</time>
      </trkpt>
      <trkpt lat="44.63982" lon="5.79522">
        <ele>1703</ele>
        <time>2018-09-29T15:16:33+02:00</time>
      </trkpt>
      <trkpt lat="44.64001" lon="5.79506">
        <ele>1701</ele>
        <time>2018-09-29T15:17:20+02:00</time>
      </trkpt>
      <trkpt lat="44.64021" lon="5.79489">
        <ele>1698</ele>
        <time>2018-09-29T15:17:51+02:00</time>
      </trkpt>
      <trkpt lat="44.64028" lon="5.79458">
        <ele>1694</ele>
        <time>2018-09-29T15:18:14+02:00</time>
      </trkpt>
      <trkpt lat="44.64041" lon="5.7943">
        <ele>1690</ele>
        <time>2018-09-29T15:18:42+02:00</time>
      </trkpt>
      <trkpt lat="44.64037" lon="5.79398">
        <ele>1686</ele>
        <time>2018-09-29T15:19:04+02:00</time>
      </trkpt>
      <trkpt lat="44.64026" lon="5.79371">
        <ele>1682</ele>
        <time>2018-09-29T15:19:43+02:00</time>
      </trkpt>
      <trkpt lat="44.64011" lon="5.79347">
        <ele>1679</ele>
        <time>2018-09-29T15:20:18+02:00</time>
      </trkpt>
      <trkpt lat="44.63996" lon="5.79316">
        <ele>1671</ele>
        <time>2018-09-29T15:20:31+02:00</time>
      </trkpt>
      <trkpt lat="44.64012" lon="5.79284">
        <ele>1666</ele>
        <time>2018-09-29T15:20:54+02:00</time>
      </trkpt>
      <trkpt lat="44.64032" lon="5.79261">
        <ele>1664</ele>
        <time>2018-09-29T15:21:26+02:00</time>
      </trkpt>
      <trkpt lat="44.6405" lon="5.79243">
        <ele>1664</ele>
        <time>2018-09-29T15:21:50+02:00</time>
      </trkpt>
      <trkpt lat="44.64066" lon="5.79218">
        <ele>1664</ele>
        <time>2018-09-29T15:22:11+02:00</time>
      </trkpt>
      <trkpt lat="44.64067" lon="5.79186">
        <ele>1663</ele>
        <time>2018-09-29T15:22:30+02:00</time>
      </trkpt>
      <trkpt lat="44.64061" lon="5.79154">
        <ele>1662</ele>
        <time>2018-09-29T15:22:53+02:00</time>
      </trkpt>
      <trkpt lat="44.6404" lon="5.79141">
        <ele>1660</ele>
        <time>2018-09-29T15:23:14+02:00</time>
      </trkpt>
      <trkpt lat="44.64018" lon="5.79145">
        <ele>1657</ele>
        <time>2018-09-29T15:23:32+02:00</time>
      </trkpt>
      <trkpt lat="44.63997" lon="5.79162">
        <ele>1655</ele>
        <time>2018-09-29T15:23:56+02:00</time>
      </trkpt>
      <trkpt lat="44.63975" lon="5.79173">
        <ele>1651</ele>
        <time>2018-09-29T15:24:25+02:00</time>
      </trkpt>
      <trkpt lat="44.63961" lon="5.79166">
        <ele>1647</ele>
      </trkpt>
      <trkpt lat="44.63963" lon="5.79137">
        <ele>1643</ele>
        <time>2018-09-29T15:25:02+02:00</time>
      </trkpt>
      <trkpt lat="44.63981" lon="5.79112">
        <ele>1644</ele>
        <time>2018-09-29T15:25:25+02:00</time>
      </trkpt>
      <trkpt lat="44.64001" lon="5.79099">
        <ele>1647</ele>
        <time>2018-09-29T15:25:46+02:00</time>
      </trkpt>
      <trkpt lat="44.64025" lon="5.79073">
        <ele>1640</ele>
        <time>2018-09-29T15:26:32+02:00</time>
      </trkpt>
      <trkpt lat="44.64002" lon="5.79078">
        <ele>1638</ele>
        <time>2018-09-29T15:27:16+02:00</time>
      </trkpt>
      <trkpt lat="44.63977" lon="5.79081">
        <ele>1627</ele>
        <time>2018-09-29T15:27:54+02:00</time>
      </trkpt>
      <trkpt lat="44.63955" lon="5.79091">
        <ele>1621</ele>
        <time>2018-09-29T15:28:45+02:00</time>
      </trkpt>
      <trkpt lat="44.63938" lon="5.79104">
        <ele>1622</ele>
      </trkpt>
      <trkpt lat="44.6393" lon="5.79097">
        <ele>1618</ele>
        <time>2018-09-29T15:29:12+02:00</time>
      </trkpt>
      <trkpt lat="44.6391" lon="5.79085">
        <ele>1608</ele>
        <time>2018-09-29T15:29:34+02:00</time>
      </trkpt>
      <trkpt lat="44.63888" lon="5.79091">
        <ele>1606</ele>
        <time>2018-09-29T15:30:00+02:00</time>
      </trkpt>
      <trkpt lat="44.63865" lon="5.79089">
        <ele>1597</ele>
        <time>2018-09-29T15:30:21+02:00</time>
      </trkpt>
      <trkpt lat="44.63841" lon="5.79098">
        <ele>1600</ele>
        <time>2018-09-29T15:30:43+02:00</time>
      </trkpt>
      <trkpt lat="44.63823" lon="5.79106">
        <ele>1604</ele>
        <time>2018-09-29T15:31:07+02:00</time>
      </trkpt>
      <trkpt lat="44.63802" lon="5.79078">
        <ele>1606</ele>
        <time>2018-09-29T15:34:05+02:00</time>
      </trkpt>
      <trkpt lat="44.63805" lon="5.79045">
        <ele>1602</ele>
        <time>2018-09-29T15:34:36+02:00</time>
      </trkpt>
      <trkpt lat="44.63816" lon="5.79017">
        <ele>1594</ele>
        <time>2018-09-29T15:35:00+02:00</time>
      </trkpt>
      <trkpt lat="44.63818" lon="5.78986">
        <ele>1589</ele>
        <time>2018-09-29T15:35:23+02:00</time>
      </trkpt>
      <trkpt lat="44.63823" lon="5.78954">
        <ele>1583</ele>
        <time>2018-09-29T15:35:51+02:00</time>
      </trkpt>
      <trkpt lat="44.63816" lon="5.78924">
        <ele>1582</ele>
        <time>2018-09-29T15:36:22+02:00</time>
      </trkpt>
      <trkpt lat="44.63817" lon="5.78892">
        <ele>1577</ele>
        <time>2018-09-29T15:36:55+02:00</time>
      </trkpt>
      <trkpt lat="44.6381" lon="5.78858">
        <ele>1574</ele>
        <time>2018-09-29T15:37:24+02:00</time>
      </trkpt>
      <trkpt lat="44.63799" lon="5.7883">
        <ele>1574</ele>
        <time>2018-09-29T15:37:44+02:00</time>
      </trkpt>
      <trkpt lat="44.63792" lon="5.78799">
        <ele>1573</ele>
        <time>2018-09-29T15:37:59+02:00</time>
      </trkpt>
      <trkpt lat="44.6379" lon="5.78766">
        <ele>1572</ele>
        <time>2018-09-29T15:38:27+02:00</time>
      </trkpt>
      <trkpt lat="44.638" lon="5.78737">
        <ele>1569</ele>
        <time>2018-09-29T15:38:49+02:00</time>
      </trkpt>
      <trkpt lat="44.63801" lon="5.78718">
        <ele>1569</ele>
        <time>2018-09-29T15:40:44+02:00</time>
      </trkpt>
      <trkpt lat="44.63822" lon="5.78705">
        <ele>1562</ele>
        <time>2018-09-29T15:42:43+02:00</time>
      </trkpt>
      <trkpt lat="44.63844" lon="5.78713">
        <ele>1557</ele>
        <time>2018-09-29T15:43:17+02:00</time>
      </trkpt>
      <trkpt lat="44.63844" lon="5.78681">
        <ele>1557</ele>
        <time>2018-09-29T15:43:47+02:00</time>
      </trkpt>
      <trkpt lat="44.63856" lon="5.78652">
        <ele>1556</ele>
        <time>2018-09-29T15:44:12+02:00</time>
      </trkpt>
      <trkpt lat="44.63877" lon="5.78642">
        <ele>1551</ele>
        <time>2018-09-29T15:45:01+02:00</time>
      </trkpt>
      <trkpt lat="44.63888" lon="5.78613">
        <ele>1550</ele>
        <time>2018-09-29T15:45:23+02:00</time>
      </trkpt>
      <trkpt lat="44.63909" lon="5.78602">
        <ele>1547</ele>
        <time>2018-09-29T15:46:01+02:00</time>
      </trkpt>
      <trkpt lat="44.63932" lon="5.78604">
        <ele>1541</ele>
        <time>2018-09-29T15:46:17+02:00</time>
      </trkpt>
      <trkpt lat="44.63946" lon="5.78578">
        <ele>1539</ele>
        <time>2018-09-29T15:46:32+02:00</time>
      </trkpt>
      <trkpt lat="44.63958" lon="5.7855">
        <ele>1534</ele>
        <time>2018-09-29T15:46:56+02:00</time>
      </trkpt>
      <trkpt lat="44.63977" lon="5.78531">
        <ele>1526</ele>
        <time>2018-09-29T15:47:24+02:00</time>
      </trkpt>
      <trkpt lat="44.63994" lon="5.78509">
        <ele>1519</ele>
        <time>2018-09-29T15:47:48+02:00</time>
      </trkpt>
      <trkpt lat="44.6401" lon="5.78483">
        <ele>1513</ele>
        <time>2018-09-29T15:48:07+02:00</time>
      </trkpt>
      <trkpt lat="44.6403" lon="5.78469">
        <ele>1503</ele>
        <time>2018-09-29T15:48:41+02:00</time>
      </trkpt>
      <trkpt lat="44.64044" lon="5.78445">
        <ele>1499</ele>
        <time>2018-09-29T15:49:07+02:00</time>
      </trkpt>
      <trkpt lat="44.64056" lon="5.78417">
        <ele>1495</ele>
        <time>2018-09-29T15:49:25+02:00</time>
      </trkpt>
      <trkpt lat="44.6407" lon="5.78393">
        <ele>1492</ele>
        <time>2018-09-29T15:49:56+02:00</time>
      </trkpt>
      <trkpt lat="44.64086" lon="5.78369">
        <ele>1491</ele>
        <time>2018-09-29T15:50:34+02:00</time>
      </trkpt>
      <trkpt lat="44.64104" lon="5.7835">
        <ele>1487</ele>
        <time>2018-09-29T15:50:48+02:00</time>
      </trkpt>
      <trkpt lat="44.64124" lon="5.78335">
        <ele>1482</ele>
        <time>2018-09-29T15:51:02+02:00</time>
      </trkpt>
      <trkpt lat="44.64145" lon="5.78321">
        <ele>1476</ele>
        <time>2018-09-29T15:51:27+02:00</time>
      </trkpt>
      <trkpt lat="44.64162" lon="5.783">
        <ele>1474</ele>
        <time>2018-09-29T15:51:45+02:00</time>
      </trkpt>
      <trkpt lat="44.64169" lon="5.78268">
        <ele>1472</ele>
        <time>2018-09-29T15:52:19+02:00</time>
      </trkpt>
      <trkpt lat="44.64179" lon="5.7824">
        <ele>1463</ele>
        <time>2018-09-29T15:54:43+02:00</time>
      </trkpt>
      <trkpt lat="44.64194" lon="5.78214">
        <ele>1452</ele>
        <time>2018-09-29T15:55:15+02:00</time>
      </trkpt>
      <trkpt lat="44.64203" lon="5.78184">
        <ele>1448</ele>
        <time>2018-09-29T15:55:51+02:00</time>
      </trkpt>
      <trkpt lat="44.64202" lon="5.78152">
        <ele>1448</ele>
        <time>2018-09-29T15:56:20+02:00</time>
      </trkpt>
      <trkpt lat="44.64219" lon="5.78126">
        <ele>1439</ele>
        <time>2018-09-29T15:57:05+02:00</time>
      </trkpt>
      <trkpt lat="44.64234" lon="5.78103">
        <ele>1436</ele>
        <time>2018-09-29T15:57:56+02:00</time>
      </trkpt>
      <trkpt lat="44.64246" lon="5.78076">
        <ele>1435</ele>
        <time>2018-09-29T16:05:26+02:00</time>
      </trkpt>
      <trkpt lat="44.64255" lon="5.78046">
        <ele>1436</ele>
        <time>2018-09-29T16:06:04+02:00</time>
      </trkpt>
      <trkpt lat="44.64253" lon="5.78014">
        <ele>1436</ele>
        <time>2018-09-29T16:06:31+02:00</time>
      </trkpt>
      <trkpt lat="44.64243" lon="5.77984">
        <ele>1435</ele>
        <time>2018-09-29T16:06:55+02:00</time>
      </trkpt>
      <trkpt lat="44.64231" lon="5.77957">
        <ele>1433</ele>
        <time>2018-09-29T16:07:14+02:00</time>
      </trkpt>
      <trkpt lat="44.64215" lon="5.77933">
        <ele>1430</ele>
        <time>2018-09-29T16:07:34+02:00</time>
      </trkpt>
      <trkpt lat="44.64198" lon="5.77911">
        <ele>1425</ele>
        <time>2018-09-29T16:08:01+02:00</time>
      </trkpt>
      <trkpt lat="44.64183" lon="5.77887">
        <ele>1419</ele>
        <time>2018-09-29T16:08:20+02:00</time>
      </trkpt>
      <trkpt lat="44.64165" lon="5.77866">
        <ele>1415</ele>
        <time>2018-09-29T16:08:37+02:00</time>
      </trkpt>
      <trkpt lat="44.64148" lon="5.77845">
        <ele>1410</ele>
        <time>2018-09-29T16:08:57+02:00</time>
      </trkpt>
      <trkpt lat="44.64134" lon="5.77818">
        <ele>1408</ele>
        <time>2018-09-29T16:09:15+02:00</time>
      </trkpt>
      <trkpt lat="44.64151" lon="5.77792">
        <ele>1403</ele>
        <time>2018-09-29T16:09:51+02:00</time>
      </trkpt>
      <trkpt lat="44.64143" lon="5.77753">
        <ele>1397</ele>
        <time>2018-09-29T16:12:15+02:00</time>
      </trkpt>
      <trkpt lat="44.64143" lon="5.77721">
        <ele>1394</ele>
        <time>2018-09-29T16:12:39+02:00</time>
      </trkpt>
      <trkpt lat="44.6414" lon="5.77688">
        <ele>1390</ele>
        <time>2018-09-29T16:13:01+02:00</time>
      </trkpt>
      <trkpt lat="44.64134" lon="5.77658">
        <ele>1386</ele>
        <time>2018-09-29T16:13:32+02:00</time>
      </trkpt>
      <trkpt lat="44.64133" lon="5.77625">
        <ele>1383</ele>
        <time>2018-09-29T16:13:53+02:00</time>
      </trkpt>
      <trkpt lat="44.64126" lon="5.77594">
        <ele>1378</ele>
        <time>2018-09-29T16:14:17+02:00</time>
      </trkpt>
      <trkpt lat="44.64131" lon="5.77562">
        <ele>1374</ele>
        <time>2018-09-29T16:14:41+02:00</time>
      </trkpt>
      <trkpt lat="44.6412" lon="5.77533">
        <ele>1368</ele>
        <time>2018-09-29T16:15:14+02:00</time>
      </trkpt>
      <trkpt lat="44.641" lon="5.77517">
        <ele>1363</ele>
        <time>2018-09-29T16:15:35+02:00</time>
      </trkpt>
      <trkpt lat="44.64083" lon="5.77496">
        <ele>1360</ele>
        <time>2018-09-29T16:16:03+02:00</time>
      </trkpt>
      <trkpt lat="44.64068" lon="5.77471">
        <ele>1358</ele>
        <time>2018-09-29T16:16:33+02:00</time>
      </trkpt>
      <trkpt lat="44.64049" lon="5.77453">
        <ele>1355</ele>
        <time>2018-09-29T16:16:58+02:00</time>
      </trkpt>
      <trkpt lat="44.64028" lon="5.77437">
        <ele>1350</ele>
        <time>2018-09-29T16:17:12+02:00</time>
      </trkpt>
      <trkpt lat="44.64008" lon="5.77423">
        <ele>1345</ele>
        <time>2018-09-29T16:17:38+02:00</time>
      </trkpt>
      <trkpt lat="44.63989" lon="5.77406">
        <ele>1342</ele>
        <time>2018-09-29T16:18:00+02:00</time>
      </trkpt>
      <trkpt lat="44.63969" lon="5.77389">
        <ele>1337</ele>
        <time>2018-09-29T16:18:29+02:00</time>
      </trkpt>
      <trkpt lat="44.63947" lon="5.77386">
        <ele>1333</ele>
        <time>2018-09-29T16:18:55+02:00</time>
      </trkpt>
      <trkpt lat="44.6393" lon="5.77363">
        <ele>1330</ele>
        <time>2018-09-29T16:19:20+02:00</time>
      </trkpt>
      <trkpt lat="44.63909" lon="5.77328">
        <ele>1326</ele>
        <time>2018-09-29T16:19:41+02:00</time>
      </trkpt>
      <trkpt lat="44.63907" lon="5.7736">
        <ele>1324</ele>
        <time>2018-09-29T16:20:31+02:00</time>
      </trkpt>
      <trkpt lat="44.63895" lon="5.77388">
        <ele>1322</ele>
        <time>2018-09-29T16:20:52+02:00</time>
      </trkpt>
      <trkpt lat="44.63865" lon="5.77373">
        <ele>1317</ele>
        <time>2018-09-29T16:21:13+02:00</time>
      </trkpt>
      <trkpt lat="44.6385" lon="5.77356">
        <ele>1312</ele>
        <time>2018-09-29T16:22:15+02:00</time>
      </trkpt>
      <trkpt lat="44.63828" lon="5.77365">
        <ele>1313</ele>
        <time>2018-09-29T16:22:46+02:00</time>
      </trkpt>
      <trkpt lat="44.63803" lon="5.77375">
        <ele>1313</ele>
        <time>2018-09-29T16:23:10+02:00</time>
      </trkpt>
      <trkpt lat="44.63779" lon="5.77378">
        <ele>1313</ele>
        <time>2018-09-29T16:23:29+02:00</time>
      </trkpt>
      <trkpt lat="44.63761" lon="5.77385">
        <ele>1314</ele>
        <time>2018-09-29T16:23:45+02:00</time>
      </trkpt>
      <trkpt lat="44.63739" lon="5.77386">
        <ele>1313</ele>
        <time>2018-09-29T16:24:08+02:00</time>
      </trkpt>
      <trkpt lat="44.63722" lon="5.77364">
        <ele>1309</ele>
      </trkpt>
      <trkpt lat="44.63715" lon="5.77347">
        <ele>1305</ele>
        <time>2018-09-29T16:24:28+02:00</time>
      </trkpt>
    </trkseg>
  </trk>
</gpx>